sensor_id;sensor_type;location;lat;lon;timestamp;pressure;altitude;pressure_sealevel;temperature;humidity
63194;BME280;49289;51.670;5.624;2023-03-03T00:01:09;102601.28;;;7.45;65.57
63194;BME280;49289;51.670;5.624;2023-03-03T00:02:56;102603.13;;;7.42;65.50
63194;BME280;49289;51.670;5.624;2023-03-03T00:04:43;102608.02;;;7.42;65.75
63194;BME280;49289;51.670;5.624;2023-03-03T00:06:30;102605.19;;;6.77;68.06
63194;BME280;49289;51.670;5.624;2023-03-03T00:08:17;102602.20;;;7.21;67.02
63194;BME280;49289;51.670;5.624;2023-03-03T00:10:04;102600.07;;;7.20;66.59
63194;BME280;49289;51.670;5.624;2023-03-03T00:11:53;102602.56;;;6.97;67.67
63194;BME280;49289;51.670;5.624;2023-03-03T00:13:43;102613.34;;;7.10;67.37
63194;BME280;49289;51.670;5.624;2023-03-03T00:15:30;102611.36;;;6.79;68.70
63194;BME280;49289;51.670;5.624;2023-03-03T00:17:18;102611.71;;;6.90;68.11
63194;BME280;49289;51.670;5.624;2023-03-03T00:19:05;102477.20;;;6.13;68.31
63194;BME280;49289;51.670;5.624;2023-03-03T00:20:53;102607.52;;;7.14;67.76
63194;BME280;49289;51.670;5.624;2023-03-03T00:22:40;102603.28;;;7.09;67.82
63194;BME280;49289;51.670;5.624;2023-03-03T00:24:31;102605.87;;;7.12;67.88
63194;BME280;49289;51.670;5.624;2023-03-03T00:26:20;102590.15;;;7.00;67.77
63194;BME280;49289;51.670;5.624;2023-03-03T00:28:13;102592.30;;;6.52;68.94
63194;BME280;49289;51.670;5.624;2023-03-03T00:29:58;102611.41;;;6.90;68.84
63194;BME280;49289;51.670;5.624;2023-03-03T00:31:45;102615.83;;;6.80;68.32
63194;BME280;49289;51.670;5.624;2023-03-03T00:33:35;102612.58;;;7.05;68.04
63194;BME280;49289;51.670;5.624;2023-03-03T00:35:30;102614.41;;;7.29;67.26
63194;BME280;49289;51.670;5.624;2023-03-03T00:37:26;102611.26;;;6.80;67.85
63194;BME280;49289;51.670;5.624;2023-03-03T00:39:24;102618.17;;;7.08;67.03
63194;BME280;49289;51.670;5.624;2023-03-03T00:41:14;102621.02;;;6.65;67.82
63194;BME280;49289;51.670;5.624;2023-03-03T00:43:09;102627.70;;;7.04;67.46
63194;BME280;49289;51.670;5.624;2023-03-03T00:44:52;102603.77;;;6.93;66.93
63194;BME280;49289;51.670;5.624;2023-03-03T00:46:40;102626.45;;;7.03;67.30
63194;BME280;49289;51.670;5.624;2023-03-03T00:48:38;102627.92;;;6.63;68.34
63194;BME280;49289;51.670;5.624;2023-03-03T00:50:39;102605.95;;;6.88;67.53
63194;BME280;49289;51.670;5.624;2023-03-03T00:52:27;102627.17;;;6.75;67.46
63194;BME280;49289;51.670;5.624;2023-03-03T00:54:14;102512.16;;;6.39;67.39
63194;BME280;49289;51.670;5.624;2023-03-03T00:56:02;102627.05;;;6.75;68.07
63194;BME280;49289;51.670;5.624;2023-03-03T00:57:51;102626.67;;;7.05;67.48
63194;BME280;49289;51.670;5.624;2023-03-03T00:59:39;102607.30;;;6.75;67.68
63194;BME280;49289;51.670;5.624;2023-03-03T01:01:27;102628.73;;;7.14;66.71
63194;BME280;49289;51.670;5.624;2023-03-03T01:04:13;102619.52;;;6.61;66.67
63194;BME280;49289;51.670;5.624;2023-03-03T01:06:00;102616.66;;;6.09;68.82
63194;BME280;49289;51.670;5.624;2023-03-03T01:07:47;102622.48;;;6.42;68.06
63194;BME280;49289;51.670;5.624;2023-03-03T01:09:34;102621.16;;;6.45;67.66
63194;BME280;49289;51.670;5.624;2023-03-03T01:11:22;102622.59;;;6.93;66.46
63194;BME280;49289;51.670;5.624;2023-03-03T01:13:09;102623.73;;;6.86;66.38
63194;BME280;49289;51.670;5.624;2023-03-03T01:14:56;102642.45;;;6.97;66.40
63194;BME280;49289;51.670;5.624;2023-03-03T01:16:45;102624.23;;;7.05;65.84
63194;BME280;49289;51.670;5.624;2023-03-03T01:18:32;102636.38;;;7.23;65.50
63194;BME280;49289;51.670;5.624;2023-03-03T01:20:20;102643.11;;;7.09;66.09
63194;BME280;49289;51.670;5.624;2023-03-03T01:22:08;102649.31;;;7.12;65.87
63194;BME280;49289;51.670;5.624;2023-03-03T01:23:56;102643.73;;;7.29;65.67
63194;BME280;49289;51.670;5.624;2023-03-03T01:25:44;102630.88;;;7.20;65.34
63194;BME280;49289;51.670;5.624;2023-03-03T01:27:32;102646.55;;;7.39;65.07
63194;BME280;49289;51.670;5.624;2023-03-03T01:29:19;102633.52;;;7.35;65.03
63194;BME280;49289;51.670;5.624;2023-03-03T01:31:06;102648.66;;;7.38;64.99
63194;BME280;49289;51.670;5.624;2023-03-03T01:32:54;102650.52;;;6.55;66.21
63194;BME280;49289;51.670;5.624;2023-03-03T01:34:42;102647.48;;;6.69;66.50
63194;BME280;49289;51.670;5.624;2023-03-03T01:36:34;102649.64;;;6.26;67.01
63194;BME280;49289;51.670;5.624;2023-03-03T01:38:21;102643.69;;;6.57;66.59
63194;BME280;49289;51.670;5.624;2023-03-03T01:40:11;102632.80;;;6.50;66.39
63194;BME280;49289;51.670;5.624;2023-03-03T01:41:55;102631.91;;;6.59;66.26
63194;BME280;49289;51.670;5.624;2023-03-03T01:43:43;102649.79;;;6.70;66.33
63194;BME280;49289;51.670;5.624;2023-03-03T01:45:31;102646.91;;;6.97;65.84
63194;BME280;49289;51.670;5.624;2023-03-03T01:47:17;102657.45;;;6.70;66.06
63194;BME280;49289;51.670;5.624;2023-03-03T01:49:06;102635.16;;;6.86;65.85
63194;BME280;49289;51.670;5.624;2023-03-03T01:50:54;102659.47;;;6.37;66.93
63194;BME280;49289;51.670;5.624;2023-03-03T01:52:42;102637.00;;;6.52;66.46
63194;BME280;49289;51.670;5.624;2023-03-03T01:54:29;102638.30;;;6.52;66.74
63194;BME280;49289;51.670;5.624;2023-03-03T01:56:17;102640.52;;;6.66;66.50
63194;BME280;49289;51.670;5.624;2023-03-03T01:58:05;102653.83;;;6.51;66.82
63194;BME280;49289;51.670;5.624;2023-03-03T01:59:52;102658.51;;;7.03;65.76
63194;BME280;49289;51.670;5.624;2023-03-03T02:01:39;102639.03;;;6.62;65.76
63194;BME280;49289;51.670;5.624;2023-03-03T02:03:26;102583.44;;;6.50;65.87
63194;BME280;49289;51.670;5.624;2023-03-03T02:05:13;102656.13;;;7.22;65.17
63194;BME280;49289;51.670;5.624;2023-03-03T02:07:01;102661.92;;;7.27;65.00
63194;BME280;49289;51.670;5.624;2023-03-03T02:08:50;102663.17;;;7.36;64.81
63194;BME280;49289;51.670;5.624;2023-03-03T02:10:37;102654.81;;;7.24;64.59
63194;BME280;49289;51.670;5.624;2023-03-03T02:12:25;102634.98;;;6.78;65.40
63194;BME280;49289;51.670;5.624;2023-03-03T02:14:13;102658.08;;;6.62;66.15
63194;BME280;49289;51.670;5.624;2023-03-03T02:16:00;102662.28;;;6.61;65.72
63194;BME280;49289;51.670;5.624;2023-03-03T02:17:49;102657.41;;;6.85;65.76
63194;BME280;49289;51.670;5.624;2023-03-03T02:19:38;102646.21;;;6.62;65.99
63194;BME280;49289;51.670;5.624;2023-03-03T02:21:24;102644.00;;;6.81;65.61
63194;BME280;49289;51.670;5.624;2023-03-03T02:23:12;102663.58;;;7.07;65.31
63194;BME280;49289;51.670;5.624;2023-03-03T02:25:01;102641.52;;;7.17;64.81
63194;BME280;49289;51.670;5.624;2023-03-03T02:26:48;102641.24;;;7.25;64.45
63194;BME280;49289;51.670;5.624;2023-03-03T02:28:36;102657.03;;;7.38;64.38
63194;BME280;49289;51.670;5.624;2023-03-03T02:30:25;102659.28;;;7.47;64.27
63194;BME280;49289;51.670;5.624;2023-03-03T02:32:12;102640.47;;;7.27;63.88
63194;BME280;49289;51.670;5.624;2023-03-03T02:33:59;102655.70;;;7.48;64.01
63194;BME280;49289;51.670;5.624;2023-03-03T02:35:46;102639.03;;;7.07;64.88
63194;BME280;49289;51.670;5.624;2023-03-03T02:37:33;102645.04;;;7.23;64.49
63194;BME280;49289;51.670;5.624;2023-03-03T02:39:22;102633.67;;;7.11;64.68
63194;BME280;49289;51.670;5.624;2023-03-03T02:41:12;102654.51;;;7.23;64.75
63194;BME280;49289;51.670;5.624;2023-03-03T02:43:00;102654.77;;;7.20;64.65
63194;BME280;49289;51.670;5.624;2023-03-03T02:44:46;102649.92;;;7.39;64.18
63194;BME280;49289;51.670;5.624;2023-03-03T02:46:34;102652.04;;;7.21;64.53
63194;BME280;49289;51.670;5.624;2023-03-03T02:48:22;102636.14;;;7.14;64.34
63194;BME280;49289;51.670;5.624;2023-03-03T02:50:10;102652.97;;;6.99;65.07
63194;BME280;49289;51.670;5.624;2023-03-03T02:51:58;102632.16;;;7.00;64.81
63194;BME280;49289;51.670;5.624;2023-03-03T02:53:44;102625.46;;;7.25;64.21
63194;BME280;49289;51.670;5.624;2023-03-03T02:55:32;102650.53;;;7.42;64.39
63194;BME280;49289;51.670;5.624;2023-03-03T02:57:20;102648.00;;;7.47;64.22
63194;BME280;49289;51.670;5.624;2023-03-03T02:59:09;102653.13;;;7.49;64.16
63194;BME280;49289;51.670;5.624;2023-03-03T03:00:56;102635.55;;;7.47;63.75
63194;BME280;49289;51.670;5.624;2023-03-03T03:02:44;102652.66;;;7.35;63.81
63194;BME280;49289;51.670;5.624;2023-03-03T03:04:32;102656.54;;;7.01;64.50
63194;BME280;49289;51.670;5.624;2023-03-03T03:06:20;102650.67;;;7.19;63.97
63194;BME280;49289;51.670;5.624;2023-03-03T03:08:07;102652.28;;;6.82;65.01
63194;BME280;49289;51.670;5.624;2023-03-03T03:09:55;102659.39;;;6.96;64.95
63194;BME280;49289;51.670;5.624;2023-03-03T03:11:43;102659.16;;;6.72;65.19
63194;BME280;49289;51.670;5.624;2023-03-03T03:13:30;102645.05;;;6.84;65.00
63194;BME280;49289;51.670;5.624;2023-03-03T03:15:19;102655.63;;;7.05;64.44
63194;BME280;49289;51.670;5.624;2023-03-03T03:17:07;102657.99;;;6.80;64.91
63194;BME280;49289;51.670;5.624;2023-03-03T03:18:55;102665.50;;;6.66;65.42
63194;BME280;49289;51.670;5.624;2023-03-03T03:20:47;102663.23;;;6.62;65.12
63194;BME280;49289;51.670;5.624;2023-03-03T03:24:21;102669.59;;;6.48;65.52
63194;BME280;49289;51.670;5.624;2023-03-03T03:26:09;102645.88;;;6.59;64.90
63194;BME280;49289;51.670;5.624;2023-03-03T03:27:56;102667.70;;;6.92;64.19
63194;BME280;49289;51.670;5.624;2023-03-03T03:29:43;102665.95;;;6.83;64.46
63194;BME280;49289;51.670;5.624;2023-03-03T03:31:30;102668.01;;;6.80;64.40
63194;BME280;49289;51.670;5.624;2023-03-03T03:33:17;102669.95;;;7.04;63.83
63194;BME280;49289;51.670;5.624;2023-03-03T03:35:04;102671.80;;;6.78;64.22
63194;BME280;49289;51.670;5.624;2023-03-03T03:36:51;102668.16;;;6.91;64.41
63194;BME280;49289;51.670;5.624;2023-03-03T03:38:38;102653.98;;;6.70;64.33
63194;BME280;49289;51.670;5.624;2023-03-03T03:40:25;102663.50;;;7.01;64.20
63194;BME280;49289;51.670;5.624;2023-03-03T03:42:12;102660.06;;;6.89;64.13
63194;BME280;49289;51.670;5.624;2023-03-03T03:43:59;102640.59;;;6.86;64.45
63194;BME280;49289;51.670;5.624;2023-03-03T03:45:47;102480.58;;;6.15;63.60
63194;BME280;49289;51.670;5.624;2023-03-03T03:47:35;102662.50;;;7.00;63.97
63194;BME280;49289;51.670;5.624;2023-03-03T03:49:23;102664.36;;;6.70;64.21
63194;BME280;49289;51.670;5.624;2023-03-03T03:51:12;102667.98;;;6.35;65.68
63194;BME280;49289;51.670;5.624;2023-03-03T03:53:00;102670.74;;;6.62;65.43
63194;BME280;49289;51.670;5.624;2023-03-03T03:54:46;102668.33;;;6.84;64.95
63194;BME280;49289;51.670;5.624;2023-03-03T03:56:33;102667.56;;;6.87;64.53
63194;BME280;49289;51.670;5.624;2023-03-03T03:58:20;102646.51;;;6.38;65.09
63194;BME280;49289;51.670;5.624;2023-03-03T04:00:08;102667.41;;;6.56;65.47
63194;BME280;49289;51.670;5.624;2023-03-03T04:01:55;102649.28;;;6.50;65.43
63194;BME280;49289;51.670;5.624;2023-03-03T04:03:43;102668.84;;;6.69;65.25
63194;BME280;49289;51.670;5.624;2023-03-03T04:05:31;102666.05;;;6.83;64.68
63194;BME280;49289;51.670;5.624;2023-03-03T04:07:20;102667.38;;;6.90;64.28
63194;BME280;49289;51.670;5.624;2023-03-03T04:09:10;102676.12;;;6.75;64.92
63194;BME280;49289;51.670;5.624;2023-03-03T04:10:58;102657.42;;;6.76;64.76
63194;BME280;49289;51.670;5.624;2023-03-03T04:12:45;102648.83;;;6.53;65.67
63194;BME280;49289;51.670;5.624;2023-03-03T04:14:33;102669.06;;;6.69;65.36
63194;BME280;49289;51.670;5.624;2023-03-03T04:16:21;102673.23;;;6.65;65.40
63194;BME280;49289;51.670;5.624;2023-03-03T04:18:09;102672.14;;;6.65;65.03
63194;BME280;49289;51.670;5.624;2023-03-03T04:19:58;102672.12;;;6.01;66.94
63194;BME280;49289;51.670;5.624;2023-03-03T04:21:46;102657.08;;;6.14;66.97
63194;BME280;49289;51.670;5.624;2023-03-03T04:23:34;102657.71;;;5.94;67.28
63194;BME280;49289;51.670;5.624;2023-03-03T04:25:23;102650.47;;;6.36;66.77
63194;BME280;49289;51.670;5.624;2023-03-03T04:27:11;102653.44;;;6.24;66.22
63194;BME280;49289;51.670;5.624;2023-03-03T04:28:58;102678.54;;;6.64;66.10
63194;BME280;49289;51.670;5.624;2023-03-03T04:30:45;102675.32;;;6.55;66.38
63194;BME280;49289;51.670;5.624;2023-03-03T04:32:32;102656.67;;;6.33;66.15
63194;BME280;49289;51.670;5.624;2023-03-03T04:34:19;102676.02;;;5.91;68.18
63194;BME280;49289;51.670;5.624;2023-03-03T04:36:07;102672.67;;;5.95;67.66
63194;BME280;49289;51.670;5.624;2023-03-03T04:37:55;102680.28;;;5.85;68.29
63194;BME280;49289;51.670;5.624;2023-03-03T04:39:43;102675.67;;;6.26;67.41
63194;BME280;49289;51.670;5.624;2023-03-03T04:41:32;102675.11;;;6.35;66.85
63194;BME280;49289;51.670;5.624;2023-03-03T04:43:20;102676.00;;;6.65;66.29
63194;BME280;49289;51.670;5.624;2023-03-03T04:45:08;102678.19;;;6.28;67.02
63194;BME280;49289;51.670;5.624;2023-03-03T04:46:56;102677.97;;;6.48;66.02
63194;BME280;49289;51.670;5.624;2023-03-03T04:48:44;102662.22;;;6.71;65.54
63194;BME280;49289;51.670;5.624;2023-03-03T04:50:32;102654.73;;;6.77;65.15
63194;BME280;49289;51.670;5.624;2023-03-03T04:52:20;102681.98;;;6.68;65.76
63194;BME280;49289;51.670;5.624;2023-03-03T04:54:08;102660.99;;;6.29;66.55
63194;BME280;49289;51.670;5.624;2023-03-03T04:56:54;102663.09;;;6.45;66.41
63194;BME280;49289;51.670;5.624;2023-03-03T04:58:42;102663.20;;;6.52;66.17
63194;BME280;49289;51.670;5.624;2023-03-03T05:00:29;102679.66;;;6.34;66.54
63194;BME280;49289;51.670;5.624;2023-03-03T05:02:18;102663.38;;;6.75;65.56
63194;BME280;49289;51.670;5.624;2023-03-03T05:04:06;102666.79;;;6.57;66.31
63194;BME280;49289;51.670;5.624;2023-03-03T05:05:53;102667.00;;;6.43;66.64
63194;BME280;49289;51.670;5.624;2023-03-03T05:07:41;102680.27;;;6.67;66.06
63194;BME280;49289;51.670;5.624;2023-03-03T05:09:29;102665.93;;;6.94;65.07
63194;BME280;49289;51.670;5.624;2023-03-03T05:11:17;102685.45;;;7.12;64.54
63194;BME280;49289;51.670;5.624;2023-03-03T05:13:05;102666.52;;;7.26;64.11
63194;BME280;49289;51.670;5.624;2023-03-03T05:14:54;102671.47;;;7.22;63.94
63194;BME280;49289;51.670;5.624;2023-03-03T05:16:41;102676.40;;;7.00;64.29
63194;BME280;49289;51.670;5.624;2023-03-03T05:18:30;102671.39;;;6.97;64.42
63194;BME280;49289;51.670;5.624;2023-03-03T05:20:19;102671.22;;;6.91;64.66
63194;BME280;49289;51.670;5.624;2023-03-03T05:22:06;102673.03;;;7.27;63.52
63194;BME280;49289;51.670;5.624;2023-03-03T05:23:54;102671.20;;;6.96;64.03
63194;BME280;49289;51.670;5.624;2023-03-03T05:25:42;102669.09;;;7.35;63.38
63194;BME280;49289;51.670;5.624;2023-03-03T05:27:29;102668.29;;;7.53;62.73
63194;BME280;49289;51.670;5.624;2023-03-03T05:29:16;102693.30;;;7.66;62.51
63194;BME280;49289;51.670;5.624;2023-03-03T05:31:04;102687.89;;;7.48;62.88
63194;BME280;49289;51.670;5.624;2023-03-03T05:32:52;102666.60;;;7.42;62.80
63194;BME280;49289;51.670;5.624;2023-03-03T05:34:40;102680.19;;;7.58;62.91
63194;BME280;49289;51.670;5.624;2023-03-03T05:36:28;102663.40;;;7.40;62.89
63194;BME280;49289;51.670;5.624;2023-03-03T05:38:16;102658.55;;;7.41;62.75
63194;BME280;49289;51.670;5.624;2023-03-03T05:40:04;102683.23;;;7.47;63.02
63194;BME280;49289;51.670;5.624;2023-03-03T05:41:52;102664.22;;;7.50;62.72
63194;BME280;49289;51.670;5.624;2023-03-03T05:43:40;102667.37;;;7.54;62.33
63194;BME280;49289;51.670;5.624;2023-03-03T05:45:28;102668.64;;;7.63;62.26
63194;BME280;49289;51.670;5.624;2023-03-03T05:47:16;102685.64;;;7.68;62.49
63194;BME280;49289;51.670;5.624;2023-03-03T05:49:04;102681.42;;;7.34;62.97
63194;BME280;49289;51.670;5.624;2023-03-03T05:50:52;102687.33;;;7.13;63.53
63194;BME280;49289;51.670;5.624;2023-03-03T05:52:39;102685.55;;;7.17;64.07
63194;BME280;49289;51.670;5.624;2023-03-03T05:54:28;102685.36;;;7.18;63.45
63194;BME280;49289;51.670;5.624;2023-03-03T05:56:16;102673.98;;;6.82;64.25
63194;BME280;49289;51.670;5.624;2023-03-03T05:58:03;102673.50;;;6.68;64.53
63194;BME280;49289;51.670;5.624;2023-03-03T05:59:50;102695.55;;;6.91;64.33
63194;BME280;49289;51.670;5.624;2023-03-03T06:01:37;102684.70;;;7.21;64.12
63194;BME280;49289;51.670;5.624;2023-03-03T06:03:24;102687.95;;;7.08;64.12
63194;BME280;49289;51.670;5.624;2023-03-03T06:05:12;102689.73;;;7.01;63.85
63194;BME280;49289;51.670;5.624;2023-03-03T06:07:00;102693.30;;;6.91;64.80
63194;BME280;49289;51.670;5.624;2023-03-03T06:08:48;102694.14;;;6.88;65.06
63194;BME280;49289;51.670;5.624;2023-03-03T06:10:36;102679.72;;;7.20;63.91
63194;BME280;49289;51.670;5.624;2023-03-03T06:12:24;102697.44;;;7.09;64.26
63194;BME280;49289;51.670;5.624;2023-03-03T06:14:12;102686.55;;;6.89;64.26
63194;BME280;49289;51.670;5.624;2023-03-03T06:16:00;102681.03;;;7.34;63.40
63194;BME280;49289;51.670;5.624;2023-03-03T06:17:48;102702.66;;;7.62;62.98
63194;BME280;49289;51.670;5.624;2023-03-03T06:19:37;102691.09;;;7.45;63.05
63194;BME280;49289;51.670;5.624;2023-03-03T06:21:25;102692.83;;;7.68;62.72
63194;BME280;49289;51.670;5.624;2023-03-03T06:24:12;102696.30;;;7.74;62.42
63194;BME280;49289;51.670;5.624;2023-03-03T06:25:59;102697.36;;;7.65;62.59
63194;BME280;49289;51.670;5.624;2023-03-03T06:27:47;102697.23;;;7.78;62.35
63194;BME280;49289;51.670;5.624;2023-03-03T06:29:35;102706.05;;;7.92;62.28
63194;BME280;49289;51.670;5.624;2023-03-03T06:31:24;102704.92;;;7.91;62.32
63194;BME280;49289;51.670;5.624;2023-03-03T06:33:11;102704.36;;;7.88;62.13
63194;BME280;49289;51.670;5.624;2023-03-03T06:34:59;102711.61;;;8.00;62.14
63194;BME280;49289;51.670;5.624;2023-03-03T06:36:46;102711.98;;;7.77;62.35
63194;BME280;49289;51.670;5.624;2023-03-03T06:38:34;102720.78;;;7.91;62.44
63194;BME280;49289;51.670;5.624;2023-03-03T06:40:22;102736.80;;;7.70;63.03
63194;BME280;49289;51.670;5.624;2023-03-03T06:42:09;102734.27;;;7.75;62.76
63194;BME280;49289;51.670;5.624;2023-03-03T06:43:57;102740.44;;;7.27;63.45
63194;BME280;49289;51.670;5.624;2023-03-03T06:45:44;102739.84;;;7.59;62.88
63194;BME280;49289;51.670;5.624;2023-03-03T06:47:31;102741.63;;;7.66;62.58
63194;BME280;49289;51.670;5.624;2023-03-03T06:49:18;102744.41;;;7.79;62.22
63194;BME280;49289;51.670;5.624;2023-03-03T06:51:08;102754.01;;;7.86;62.14
63194;BME280;49289;51.670;5.624;2023-03-03T06:52:52;102752.93;;;8.05;61.97
63194;BME280;49289;51.670;5.624;2023-03-03T06:54:39;102735.20;;;8.04;61.74
63194;BME280;49289;51.670;5.624;2023-03-03T06:56:26;102749.38;;;8.06;61.76
63194;BME280;49289;51.670;5.624;2023-03-03T06:58:16;102567.97;;;7.05;61.62
63194;BME280;49289;51.670;5.624;2023-03-03T07:00:11;102735.80;;;8.02;61.78
63194;BME280;49289;51.670;5.624;2023-03-03T07:01:50;102741.50;;;8.17;61.58
63194;BME280;49289;51.670;5.624;2023-03-03T07:03:37;102733.80;;;7.86;61.42
63194;BME280;49289;51.670;5.624;2023-03-03T07:05:25;102753.77;;;8.09;61.73
63194;BME280;49289;51.670;5.624;2023-03-03T07:07:15;102737.25;;;7.87;61.57
63194;BME280;49289;51.670;5.624;2023-03-03T07:09:02;102746.98;;;7.78;62.28
63194;BME280;49289;51.670;5.624;2023-03-03T07:10:48;102760.23;;;8.10;61.86
63194;BME280;49289;51.670;5.624;2023-03-03T07:12:35;102760.33;;;8.02;61.95
63194;BME280;49289;51.670;5.624;2023-03-03T07:14:22;102761.55;;;8.07;61.83
63194;BME280;49289;51.670;5.624;2023-03-03T07:16:12;102741.23;;;7.85;61.99
63194;BME280;49289;51.670;5.624;2023-03-03T07:17:59;102758.06;;;7.98;62.14
63194;BME280;49289;51.670;5.624;2023-03-03T07:19:46;102746.91;;;8.07;61.74
63194;BME280;49289;51.670;5.624;2023-03-03T07:21:36;102746.05;;;7.92;61.67
63194;BME280;49289;51.670;5.624;2023-03-03T07:23:24;102770.61;;;7.68;62.10
63194;BME280;49289;51.670;5.624;2023-03-03T07:25:17;102757.27;;;7.78;61.90
63194;BME280;49289;51.670;5.624;2023-03-03T07:27:05;102760.47;;;7.87;61.34
63194;BME280;49289;51.670;5.624;2023-03-03T07:28:55;102775.70;;;7.81;61.58
63194;BME280;49289;51.670;5.624;2023-03-03T07:30:43;102766.81;;;7.84;61.28
63194;BME280;49289;51.670;5.624;2023-03-03T07:32:34;102782.30;;;8.04;61.30
63194;BME280;49289;51.670;5.624;2023-03-03T07:34:26;102762.48;;;7.98;61.19
63194;BME280;49289;51.670;5.624;2023-03-03T07:36:18;102788.47;;;8.35;60.84
63194;BME280;49289;51.670;5.624;2023-03-03T07:38:01;102765.70;;;8.07;60.96
63194;BME280;49289;51.670;5.624;2023-03-03T07:39:48;102770.32;;;7.89;61.20
63194;BME280;49289;51.670;5.624;2023-03-03T07:41:35;102789.59;;;8.04;61.04
63194;BME280;49289;51.670;5.624;2023-03-03T07:43:35;102771.63;;;8.23;60.62
63194;BME280;49289;51.670;5.624;2023-03-03T07:45:33;102777.64;;;7.99;61.20
63194;BME280;49289;51.670;5.624;2023-03-03T07:47:39;102776.68;;;8.22;60.79
63194;BME280;49289;51.670;5.624;2023-03-03T07:49:35;102795.12;;;8.54;60.56
63194;BME280;49289;51.670;5.624;2023-03-03T07:51:24;102795.88;;;8.42;60.70
63194;BME280;49289;51.670;5.624;2023-03-03T07:53:13;102780.55;;;7.99;61.47
63194;BME280;49289;51.670;5.624;2023-03-03T07:55:00;102796.99;;;7.93;62.18
63194;BME280;49289;51.670;5.624;2023-03-03T07:56:48;102795.52;;;8.27;61.81
63194;BME280;49289;51.670;5.624;2023-03-03T07:58:35;102795.23;;;8.34;61.69
63194;BME280;49289;51.670;5.624;2023-03-03T08:02:52;102778.77;;;7.98;62.01
63194;BME280;49289;51.670;5.624;2023-03-03T08:04:41;102784.61;;;8.31;61.64
63194;BME280;49289;51.670;5.624;2023-03-03T08:06:37;102789.56;;;8.01;62.28
63194;BME280;49289;51.670;5.624;2023-03-03T08:08:32;102807.28;;;8.35;61.53
63194;BME280;49289;51.670;5.624;2023-03-03T08:10:31;102810.55;;;8.01;60.94
63194;BME280;49289;51.670;5.624;2023-03-03T08:12:33;102812.66;;;8.41;61.19
63194;BME280;49289;51.670;5.624;2023-03-03T08:14:24;102809.80;;;8.44;60.61
63194;BME280;49289;51.670;5.624;2023-03-03T08:16:24;102793.02;;;8.49;60.23
63194;BME280;49289;51.670;5.624;2023-03-03T08:17:57;102798.91;;;7.88;60.64
63194;BME280;49289;51.670;5.624;2023-03-03T08:19:45;102795.29;;;8.14;60.58
63194;BME280;49289;51.670;5.624;2023-03-03T08:21:33;102796.02;;;8.32;60.69
63194;BME280;49289;51.670;5.624;2023-03-03T08:23:22;102819.70;;;8.32;60.70
63194;BME280;49289;51.670;5.624;2023-03-03T08:25:10;102820.47;;;8.45;60.56
63194;BME280;49289;51.670;5.624;2023-03-03T08:26:57;102822.41;;;8.53;60.46
63194;BME280;49289;51.670;5.624;2023-03-03T08:28:44;102825.55;;;8.33;60.67
63194;BME280;49289;51.670;5.624;2023-03-03T08:30:31;102809.64;;;8.56;60.04
63194;BME280;49289;51.670;5.624;2023-03-03T08:32:18;102835.27;;;8.61;59.95
63194;BME280;49289;51.670;5.624;2023-03-03T08:34:05;102841.48;;;8.25;60.38
63194;BME280;49289;51.670;5.624;2023-03-03T08:35:52;102817.03;;;8.07;60.87
63194;BME280;49289;51.670;5.624;2023-03-03T08:37:39;102826.34;;;8.45;60.34
63194;BME280;49289;51.670;5.624;2023-03-03T08:39:26;102813.41;;;8.41;59.26
63194;BME280;49289;51.670;5.624;2023-03-03T08:41:13;102823.86;;;8.30;59.87
63194;BME280;49289;51.670;5.624;2023-03-03T08:43:00;102841.77;;;8.63;59.62
63194;BME280;49289;51.670;5.624;2023-03-03T08:44:48;102837.48;;;8.45;59.91
63194;BME280;49289;51.670;5.624;2023-03-03T08:46:37;102841.53;;;8.46;59.88
63194;BME280;49289;51.670;5.624;2023-03-03T08:48:25;102829.69;;;8.20;60.04
63194;BME280;49289;51.670;5.624;2023-03-03T08:50:13;102822.03;;;8.17;60.24
63194;BME280;49289;51.670;5.624;2023-03-03T08:52:01;102842.59;;;8.72;59.17
63194;BME280;49289;51.670;5.624;2023-03-03T08:53:49;102845.72;;;9.07;58.20
63194;BME280;49289;51.670;5.624;2023-03-03T08:55:37;102845.02;;;9.16;58.22
63194;BME280;49289;51.670;5.624;2023-03-03T08:57:24;102827.22;;;8.89;58.22
63194;BME280;49289;51.670;5.624;2023-03-03T08:59:11;102845.70;;;9.20;58.17
63194;BME280;49289;51.670;5.624;2023-03-03T09:00:58;102849.84;;;9.34;57.71
63194;BME280;49289;51.670;5.624;2023-03-03T09:02:45;102848.97;;;9.08;57.89
63194;BME280;49289;51.670;5.624;2023-03-03T09:04:32;102846.17;;;8.90;58.61
63194;BME280;49289;51.670;5.624;2023-03-03T09:06:19;102832.88;;;8.49;59.16
63194;BME280;49289;51.670;5.624;2023-03-03T09:08:06;102819.11;;;8.39;59.54
63194;BME280;49289;51.670;5.624;2023-03-03T09:09:53;102852.91;;;8.74;58.87
63194;BME280;49289;51.670;5.624;2023-03-03T09:11:40;102852.93;;;9.12;58.19
63194;BME280;49289;51.670;5.624;2023-03-03T09:13:28;102838.66;;;8.99;58.14
63194;BME280;49289;51.670;5.624;2023-03-03T09:15:53;102832.95;;;9.10;57.89
63194;BME280;49289;51.670;5.624;2023-03-03T09:17:40;102833.73;;;8.95;58.17
63194;BME280;49289;51.670;5.624;2023-03-03T09:19:28;102850.15;;;9.10;57.88
63194;BME280;49289;51.670;5.624;2023-03-03T09:21:22;102837.88;;;9.47;56.99
63194;BME280;49289;51.670;5.624;2023-03-03T09:25:13;102855.48;;;9.48;57.28
63194;BME280;49289;51.670;5.624;2023-03-03T09:26:58;102854.56;;;9.26;56.87
63194;BME280;49289;51.670;5.624;2023-03-03T09:28:45;102856.81;;;9.06;57.40
63194;BME280;49289;51.670;5.624;2023-03-03T09:30:43;102856.38;;;9.28;57.60
63194;BME280;49289;51.670;5.624;2023-03-03T09:32:36;102860.64;;;9.62;56.62
63194;BME280;49289;51.670;5.624;2023-03-03T09:34:33;102845.97;;;9.19;57.30
63194;BME280;49289;51.670;5.624;2023-03-03T09:36:18;102864.13;;;9.28;57.45
63194;BME280;49289;51.670;5.624;2023-03-03T09:38:04;102862.91;;;9.46;57.32
63194;BME280;49289;51.670;5.624;2023-03-03T09:39:52;102862.45;;;9.54;56.92
63194;BME280;49289;51.670;5.624;2023-03-03T09:41:53;102863.71;;;9.17;57.02
63194;BME280;49289;51.670;5.624;2023-03-03T09:43:41;102861.63;;;9.08;57.04